Time;durP1;ratioP1;P1;durP2;ratioP2;P2;SDS_P1;SDS_P2;PMS_P1;PMS_P2;Temp;Humidity;BMP_temperature;BMP_pressure;BME280_temperature;BME280_humidity;BME280_pressure;Samples;Min_cycle;Max_cycle;Signal;HPM_P1;HPM_P2
2022/09/01 00:01:34;;;;;;;;;;;;;;;14.40;100.00;102370.75;4975591;28;20036;-84
2022/09/01 00:04:02;;;;;;;;;;;;;;;14.39;100.00;102373.50;4975965;28;19934;-83
2022/09/01 00:06:28;;;;;;;;;;;;;;;14.37;100.00;102362.00;5008541;28;19933;-83
2022/09/01 00:08:55;;;;;;;;;;;;;;;14.35;100.00;102361.22;5006333;28;19929;-84
2022/09/01 00:11:21;;;;;;;;;;;;;;;14.32;100.00;102364.84;4979156;28;19953;-83
2022/09/01 00:13:47;;;;;;;;;;;;;;;14.31;100.00;102356.91;5010617;28;19956;-83
2022/09/01 00:16:15;;;;;;;;;;;;;;;14.28;100.00;102362.38;5006521;28;19925;-83
2022/09/01 00:18:48;;;;;;;;;;;;;;;14.25;100.00;102361.56;5005562;28;20020;-82
2022/09/01 00:21:14;;;;;;;;;;;;;;;14.23;100.00;102360.72;4979042;28;20648;-82
2022/09/01 00:23:40;;;;;;;;;;;;;;;14.22;100.00;102358.16;4990614;28;19928;-84
2022/09/01 00:26:05;;;;;;;;;;;;;;;14.20;100.00;102365.31;4977371;28;20303;-83
2022/09/01 00:28:34;;;;;;;;;;;;;;;14.19;100.00;102360.91;4977194;28;20288;-82
2022/09/01 00:31:00;;;;;;;;;;;;;;;14.15;100.00;102357.47;5011043;28;20020;-82
2022/09/01 00:33:26;;;;;;;;;;;;;;;14.13;100.00;102356.69;4975312;28;19933;-83
2022/09/01 00:35:51;;;;;;;;;;;;;;;14.10;100.00;102360.31;4991564;28;19996;-83
2022/09/01 00:38:17;;;;;;;;;;;;;;;14.07;100.00;102357.78;4979236;28;19929;-83
2022/09/01 00:40:42;;;;;;;;;;;;;;;14.04;100.00;102357.00;4979096;28;19933;-83
2022/09/01 00:43:20;;;;;;;;;;;;;;;14.00;100.00;102356.25;5010824;28;19925;-83
2022/09/01 00:45:45;;;;;;;;;;;;;;;13.96;100.00;102367.94;4990462;28;19988;-82
2022/09/01 00:48:12;;;;;;;;;;;;;;;13.92;100.00;102358.31;4987237;28;20673;-83
2022/09/01 00:50:38;;;;;;;;;;;;;;;13.88;100.00;102357.56;4974235;28;20305;-83
2022/09/01 00:53:04;;;;;;;;;;;;;;;13.87;100.00;102361.16;5008630;28;19926;-83
2022/09/01 00:55:30;;;;;;;;;;;;;;;13.87;100.00;102360.25;4992140;28;20000;-84
2022/09/01 00:57:55;;;;;;;;;;;;;;;13.84;100.00;102355.94;5007745;28;20364;-83
2022/09/01 01:00:23;;;;;;;;;;;;;;;13.83;100.00;102359.50;4977751;28;19981;-83
2022/09/01 01:02:54;;;;;;;;;;;;;;;13.80;100.00;102354.31;4990281;28;20013;-84
2022/09/01 01:05:22;;;;;;;;;;;;;;;13.77;100.00;102352.59;5007217;28;19977;-84
2022/09/01 01:07:47;;;;;;;;;;;;;;;13.75;100.00;102351.81;4991633;28;19936;-82
2022/09/01 01:10:14;;;;;;;;;;;;;;;13.73;100.00;102352.78;4982737;28;19934;-83
2022/09/01 01:12:42;;;;;;;;;;;;;;;13.70;100.00;102348.44;4989499;28;19988;-83
2022/09/01 01:15:08;;;;;;;;;;;;;;;13.67;100.00;102348.53;5008682;28;19933;-83
2022/09/01 01:17:33;;;;;;;;;;;;;;;13.63;100.00;102339.81;4989361;28;20452;-83
2022/09/01 01:23:02;;;;;;;;;;;;;;;13.57;100.00;102337.34;4977431;28;19926;-83
2022/09/01 01:25:38;;;;;;;;;;;;;;;13.54;100.00;102338.31;5008696;28;19930;-82
2022/09/01 01:28:06;;;;;;;;;;;;;;;13.50;100.00;102341.16;4976048;28;19941;-83
2022/09/01 01:30:34;;;;;;;;;;;;;;;13.48;100.00;102337.66;4979495;28;20364;-83
2022/09/01 01:33:00;;;;;;;;;;;;;;;13.46;100.00;102334.19;4980716;28;21699;-83
2022/09/01 01:35:26;;;;;;;;;;;;;;;13.43;100.00;102341.31;4993853;28;20396;-83
2022/09/01 01:37:52;;;;;;;;;;;;;;;13.40;100.00;102341.41;4981927;28;19948;-83
2022/09/01 01:40:18;;;;;;;;;;;;;;;13.36;100.00;102334.47;4982148;28;19936;-83
2022/09/01 01:42:44;;;;;;;;;;;;;;;13.34;100.00;102335.44;4980699;28;19929;-83
2022/09/01 01:45:15;;;;;;;;;;;;;;;13.31;100.00;102339.06;4990609;28;19930;-83
2022/09/01 01:47:42;;;;;;;;;;;;;;;13.28;100.00;102344.47;4979642;28;19937;-83
2022/09/01 01:50:08;;;;;;;;;;;;;;;13.26;100.00;102338.34;4979214;28;19929;-82
2022/09/01 01:52:34;;;;;;;;;;;;;;;13.22;100.00;102342.00;4993077;28;20432;-83
2022/09/01 01:55:00;;;;;;;;;;;;;;;13.17;100.00;102348.38;4981374;28;20027;-83
2022/09/01 01:57:30;;;;;;;;;;;;;;;13.12;100.00;102342.31;4980523;28;19944;-84
2022/09/01 01:59:56;;;;;;;;;;;;;;;13.08;100.00;102343.31;4981136;28;19930;-83
2022/09/01 02:02:22;;;;;;;;;;;;;;;13.04;100.00;102345.22;4993729;28;19926;-83
2022/09/01 02:04:47;;;;;;;;;;;;;;;13.02;100.00;102340.88;4979385;28;19933;-84
2022/09/01 02:07:13;;;;;;;;;;;;;;;12.98;100.00;102342.78;4981021;28;20020;-82
2022/09/01 02:09:39;;;;;;;;;;;;;;;12.96;100.00;102341.94;4995544;28;19933;-83
2022/09/01 02:12:06;;;;;;;;;;;;;;;12.93;100.00;102346.47;5011384;28;19930;-83
2022/09/01 02:14:32;;;;;;;;;;;;;;;12.89;100.00;102346.59;4993107;28;19929;-83
2022/09/01 02:16:58;;;;;;;;;;;;;;;12.85;100.00;102342.28;4979946;28;20015;-83
2022/09/01 02:19:23;;;;;;;;;;;;;;;12.83;100.00;102340.56;4981393;28;19933;-83
2022/09/01 02:21:53;;;;;;;;;;;;;;;12.81;100.00;102347.75;5010640;28;19936;-82
2022/09/01 02:24:22;;;;;;;;;;;;;;;12.78;100.00;102346.03;4981479;28;19937;-82
2022/09/01 02:26:48;;;;;;;;;;;;;;;12.74;100.00;102341.72;5012432;28;20411;-82
2022/09/01 02:29:17;;;;;;;;;;;;;;;12.73;100.00;102342.66;4979784;28;19977;-82
2022/09/01 02:31:44;;;;;;;;;;;;;;;12.72;100.00;102343.56;5009966;28;19993;-83
2022/09/01 02:34:12;;;;;;;;;;;;;;;12.70;100.00;102340.09;4992128;28;19989;-82
2022/09/01 02:36:48;;;;;;;;;;;;;;;12.69;100.00;102339.22;5008982;28;20300;-82
2022/09/01 02:39:14;;;;;;;;;;;;;;;12.69;100.00;102338.38;4994462;28;19925;-82
2022/09/01 02:41:40;;;;;;;;;;;;;;;12.66;100.00;102339.31;5011453;28;19936;-82
2022/09/01 02:44:10;;;;;;;;;;;;;;;12.66;100.00;102335.78;4980248;28;19934;-82
2022/09/01 02:46:40;;;;;;;;;;;;;;;12.63;100.00;102340.28;4977717;28;20403;-82
2022/09/01 02:49:14;;;;;;;;;;;;;;;12.61;100.00;102338.59;4990903;28;19933;-82
2022/09/01 02:51:43;;;;;;;;;;;;;;;12.59;100.00;102338.63;4975472;28;19961;-82
2022/09/01 02:54:09;;;;;;;;;;;;;;;12.60;100.00;102342.16;4993922;28;19929;-82
2022/09/01 02:56:35;;;;;;;;;;;;;;;12.59;100.00;102335.97;4980285;28;19952;-83
2022/09/01 02:59:01;;;;;;;;;;;;;;;12.59;100.00;102337.78;5011580;28;19961;-82
2022/09/01 03:01:28;;;;;;;;;;;;;;;12.58;100.00;102334.22;4977199;28;19933;-82
2022/09/01 03:03:55;;;;;;;;;;;;;;;12.56;100.00;102322.78;4980002;28;20414;-83
2022/09/01 03:06:22;;;;;;;;;;;;;;;12.57;100.00;102334.25;5012173;28;20451;-82
2022/09/01 03:08:54;;;;;;;;;;;;;;;12.56;100.00;102332.53;5011847;28;19926;-82
2022/09/01 03:11:20;;;;;;;;;;;;;;;12.56;100.00;102336.06;5012231;28;19956;-82
2022/09/01 03:13:45;;;;;;;;;;;;;;;12.56;100.00;102332.53;5011125;28;19930;-82
2022/09/01 03:16:11;;;;;;;;;;;;;;;12.57;100.00;102339.59;5010858;28;19925;-82
2022/09/01 03:18:37;;;;;;;;;;;;;;;12.57;100.00;102336.94;5009360;28;20024;-82
2022/09/01 03:21:03;;;;;;;;;;;;;;;12.55;100.00;102339.66;5011053;28;19926;-82
2022/09/01 03:23:30;;;;;;;;;;;;;;;12.56;100.00;102338.72;4979326;28;19969;-82
2022/09/01 03:25:55;;;;;;;;;;;;;;;12.53;100.00;102338.81;4992361;28;19976;-82
2022/09/01 03:28:21;;;;;;;;;;;;;;;12.52;100.00;102337.06;4978714;28;20468;-82
2022/09/01 03:30:48;;;;;;;;;;;;;;;12.50;100.00;102345.06;4978756;28;20192;-83
2022/09/01 03:33:15;;;;;;;;;;;;;;;12.49;100.00;102337.19;4978043;28;19930;-83
2022/09/01 03:35:41;;;;;;;;;;;;;;;12.45;100.00;102344.38;4983837;28;19926;-83
2022/09/01 03:38:06;;;;;;;;;;;;;;;12.43;100.00;102337.34;5007955;28;19926;-83
2022/09/01 03:40:33;;;;;;;;;;;;;;;12.44;100.00;102339.09;4980177;28;19976;-83
2022/09/01 03:42:59;;;;;;;;;;;;;;;12.44;100.00;102339.09;4977293;28;19936;-83
2022/09/01 03:45:24;;;;;;;;;;;;;;;12.40;100.00;102329.47;4978476;28;19930;-81
2022/09/01 03:47:51;;;;;;;;;;;;;;;12.40;100.00;102326.81;4978128;28;19984;-82
2022/09/01 03:50:21;;;;;;;;;;;;;;;12.38;100.00;102326.00;5008999;28;19930;-82
2022/09/01 03:52:51;;;;;;;;;;;;;;;12.38;100.00;102333.97;4979450;28;20664;-81
2022/09/01 03:55:22;;;;;;;;;;;;;;;12.37;100.00;102325.13;4990414;28;20539;-82
2022/09/01 03:57:54;;;;;;;;;;;;;;;12.36;100.00;102326.91;5008552;28;20024;-82
2022/09/01 04:00:22;;;;;;;;;;;;;;;12.35;100.00;102329.59;4977590;28;20144;-81
2022/09/01 04:02:54;;;;;;;;;;;;;;;12.36;100.00;102324.25;5007866;28;19933;-81
2022/09/01 04:05:20;;;;;;;;;;;;;;;12.33;100.00;102326.13;5010679;28;20364;-81
2022/09/01 04:07:46;;;;;;;;;;;;;;;12.31;100.00;102327.97;4979033;28;20017;-81
2022/09/01 04:10:12;;;;;;;;;;;;;;;12.29;100.00;102320.03;4991827;28;19934;-81
2022/09/01 04:12:38;;;;;;;;;;;;;;;12.27;100.00;102319.22;4978885;28;20414;-82
2022/09/01 04:15:04;;;;;;;;;;;;;;;12.26;100.00;102329.88;4979682;28;19926;-81
2022/09/01 04:20:18;;;;;;;;;;;;;;;12.26;100.00;102320.09;4979222;28;19965;-82
2022/09/01 04:22:46;;;;;;;;;;;;;;;12.25;100.00;102318.38;4978127;28;20304;-81
2022/09/01 04:25:12;;;;;;;;;;;;;;;12.24;100.00;102321.94;4979170;28;19934;-81
2022/09/01 04:27:39;;;;;;;;;;;;;;;12.24;100.00;102326.41;4991140;28;20355;-81
2022/09/01 04:30:09;;;;;;;;;;;;;;;12.24;100.00;102316.63;5010166;28;19932;-83
2022/09/01 04:32:39;;;;;;;;;;;;;;;12.25;100.00;102313.06;5008590;28;19964;-82
2022/09/01 04:35:05;;;;;;;;;;;;;;;12.26;100.00;102319.25;4991253;28;19962;-81
2022/09/01 04:37:37;;;;;;;;;;;;;;;12.26;100.00;102324.56;5009112;28;21360;-82
2022/09/01 04:40:02;;;;;;;;;;;;;;;12.25;100.00;102315.72;4991097;28;19934;-82
2022/09/01 04:42:31;;;;;;;;;;;;;;;12.23;100.00;102320.22;4979674;28;19940;-82
2022/09/01 04:44:58;;;;;;;;;;;;;;;12.24;100.00;102326.41;4992024;28;21777;-81
2022/09/01 04:47:30;;;;;;;;;;;;;;;12.23;100.00;102320.22;4990233;28;20239;-83
2022/09/01 04:50:00;;;;;;;;;;;;;;;12.21;100.00;102325.56;5006278;28;19930;-82
2022/09/01 04:52:26;;;;;;;;;;;;;;;12.20;100.00;102325.63;4995027;28;20397;-82
2022/09/01 04:54:53;;;;;;;;;;;;;;;12.18;100.00;102317.69;4978917;28;19936;-82
2022/09/01 04:57:19;;;;;;;;;;;;;;;12.16;100.00;102321.31;4979531;28;19930;-82
2022/09/01 04:59:45;;;;;;;;;;;;;;;12.16;100.00;102318.66;5011407;28;19936;-82
2022/09/01 05:02:11;;;;;;;;;;;;;;;12.15;100.00;102322.22;5010048;28;19926;-82
2022/09/01 05:04:36;;;;;;;;;;;;;;;12.14;100.00;102318.69;4979175;28;19973;-83
2022/09/01 05:07:02;;;;;;;;;;;;;;;12.14;100.00;102325.81;4982794;28;20388;-82
2022/09/01 05:09:34;;;;;;;;;;;;;;;12.14;100.00;102317.84;4983905;28;19953;-83
2022/09/01 05:12:09;;;;;;;;;;;;;;;12.15;100.00;102316.91;4984002;28;19922;-82
2022/09/01 05:14:46;;;;;;;;;;;;;;;12.16;100.00;102327.47;5012695;28;19995;-82
2022/09/01 05:17:11;;;;;;;;;;;;;;;12.17;100.00;102331.00;4984179;28;19930;-83
2022/09/01 05:19:38;;;;;;;;;;;;;;;12.17;100.00;102317.72;5013702;28;19937;-82
2022/09/01 05:22:03;;;;;;;;;;;;;;;12.16;100.00;102322.16;4982483;28;19936;-82
2022/09/01 05:24:31;;;;;;;;;;;;;;;12.17;100.00;102315.06;4982216;28;19969;-83
2022/09/01 05:26:57;;;;;;;;;;;;;;;12.17;100.00;102323.94;4984130;28;20098;-82
2022/09/01 05:29:26;;;;;;;;;;;;;;;12.19;100.00;102323.84;4981786;28;19933;-82
2022/09/01 05:31:53;;;;;;;;;;;;;;;12.20;100.00;102326.47;5010276;28;19936;-82
2022/09/01 05:34:21;;;;;;;;;;;;;;;12.21;100.00;102322.91;4994605;28;19980;-82
2022/09/01 05:36:49;;;;;;;;;;;;;;;12.23;100.00;102320.22;4982686;28;19949;-80
2022/09/01 05:39:14;;;;;;;;;;;;;;;12.26;100.00;102325.41;4982159;28;20436;-82
2022/09/01 05:41:40;;;;;;;;;;;;;;;12.27;100.00;102329.84;5015030;28;19925;-82
2022/09/01 05:44:06;;;;;;;;;;;;;;;12.31;100.00;102328.81;4996529;28;19992;-82
2022/09/01 05:46:33;;;;;;;;;;;;;;;12.32;100.00;102330.56;5012015;28;19972;-82
2022/09/01 05:48:58;;;;;;;;;;;;;;;12.35;100.00;102319.88;5011264;28;21293;-82
2022/09/01 05:51:26;;;;;;;;;;;;;;;12.39;100.00;102330.38;4998207;28;20507;-82
2022/09/01 05:53:54;;;;;;;;;;;;;;;12.43;100.00;102334.69;4996098;28;19972;-82
2022/09/01 05:56:22;;;;;;;;;;;;;;;12.47;100.00;102333.66;5013072;28;19953;-81
2022/09/01 05:58:49;;;;;;;;;;;;;;;12.54;100.00;102337.91;5012192;28;19996;-82
2022/09/01 06:01:20;;;;;;;;;;;;;;;12.60;100.00;102345.66;5012543;28;21321;-83
2022/09/01 06:03:47;;;;;;;;;;;;;;;12.67;100.00;102342.84;4981977;28;19929;-82
2022/09/01 06:06:13;;;;;;;;;;;;;;;12.72;100.00;102335.59;4983459;28;19926;-82
2022/09/01 06:08:41;;;;;;;;;;;;;;;12.79;100.00;102344.28;5013753;28;19991;-82
2022/09/01 06:11:11;;;;;;;;;;;;;;;12.85;100.00;102338.75;4995406;28;19993;-82
2022/09/01 06:13:38;;;;;;;;;;;;;;;12.90;100.00;102340.34;5012890;28;19967;-82
2022/09/01 06:16:04;;;;;;;;;;;;;;;12.97;100.00;102340.16;4980929;28;19930;-83
2022/09/01 06:18:33;;;;;;;;;;;;;;;13.02;100.00;102343.53;4979733;28;19940;-83
2022/09/01 06:20:58;;;;;;;;;;;;;;;13.07;100.00;102344.25;5007859;28;19929;-83
2022/09/01 06:23:24;;;;;;;;;;;;;;;13.14;100.00;102339.63;4993651;28;20348;-84
2022/09/01 06:25:50;;;;;;;;;;;;;;;13.22;100.00;102337.56;4992197;28;20384;-83
2022/09/01 06:28:17;;;;;;;;;;;;;;;13.30;100.00;102340.00;4980274;28;19934;-84
2022/09/01 06:30:44;;;;;;;;;;;;;;;13.38;100.00;102337.06;4994027;28;19926;-83
2022/09/01 06:33:12;;;;;;;;;;;;;;;13.47;100.00;102334.13;5009764;28;20520;-86
2022/09/01 06:35:43;;;;;;;;;;;;;;;13.60;100.00;102342.56;4991788;28;21313;-86
2022/09/01 06:38:10;;;;;;;;;;;;;;;13.74;100.00;102335.88;5010954;28;19968;-86
2022/09/01 06:40:40;;;;;;;;;;;;;;;13.89;100.00;102340.66;4983585;28;19930;-92
2022/09/01 06:43:06;;;;;;;;;;;;;;;13.97;99.88;102343.94;5012777;28;19988;-89
2022/09/01 06:45:33;;;;;;;;;;;;;;;14.04;99.73;102346.34;4997288;28;19977;-90
2022/09/01 06:47:58;;;;;;;;;;;;;;;14.13;100.00;102352.22;4971672;28;20312;-88
2022/09/01 06:50:26;;;;;;;;;;;;;;;14.25;99.83;102350.91;4981714;28;19960;-89
2022/09/01 06:53:00;;;;;;;;;;;;;;;14.45;99.82;102357.28;4982380;28;19929;-89
2022/09/01 06:55:30;;;;;;;;;;;;;;;14.68;99.89;102360.84;4983182;28;20413;-88
2022/09/01 06:57:57;;;;;;;;;;;;;;;14.87;98.75;102362.84;5012872;28;20032;-89
2022/09/01 07:00:23;;;;;;;;;;;;;;;14.98;97.59;102365.09;4996648;28;19929;-88
2022/09/01 07:02:53;;;;;;;;;;;;;;;15.01;96.40;102360.50;4996007;28;19930;-89
2022/09/01 07:05:20;;;;;;;;;;;;;;;14.96;96.66;102362.47;5013079;28;19925;-89
2022/09/01 07:07:50;;;;;;;;;;;;;;;14.98;96.59;102365.09;5013181;28;20163;-89
2022/09/01 07:10:21;;;;;;;;;;;;;;;15.02;96.49;102372.00;4994073;28;19969;-89
2022/09/01 07:12:48;;;;;;;;;;;;;;;15.10;96.93;102369.03;5014338;28;19926;-78
2022/09/01 07:15:16;;;;;;;;;;;;;;;15.17;96.65;102366.06;4978386;28;21340;-78
2022/09/01 07:17:47;;;;;;;;;;;;;;;15.20;96.15;102359.75;4979165;28;21375;-78
2022/09/01 07:20:14;;;;;;;;;;;;;;;15.23;95.97;102369.41;4980354;28;20377;-78
2022/09/01 07:22:40;;;;;;;;;;;;;;;15.30;96.01;102365.53;5011133;28;19930;-76
2022/09/01 07:25:06;;;;;;;;;;;;;;;15.37;95.38;102366.19;4979845;28;20119;-76
2022/09/01 07:27:32;;;;;;;;;;;;;;;15.36;94.53;102367.13;4993061;28;20554;-78
2022/09/01 07:29:58;;;;;;;;;;;;;;;15.34;95.54;102368.06;5012199;28;19929;-78
2022/09/01 07:32:23;;;;;;;;;;;;;;;15.37;95.47;102368.84;4994611;28;19930;-78
2022/09/01 07:34:49;;;;;;;;;;;;;;;15.43;95.39;102371.25;4978651;28;21394;-92
2022/09/01 07:37:14;;;;;;;;;;;;;;;15.53;95.15;102361.91;5013370;28;21661;-88
2022/09/01 07:39:46;;;;;;;;;;;;;;;15.69;94.99;102363.97;4982090;28;19957;-92
2022/09/01 07:42:11;;;;;;;;;;;;;;;15.83;93.68;102356.22;4996104;28;21229;-88
2022/09/01 07:44:37;;;;;;;;;;;;;;;15.95;92.58;102362.00;5013277;28;19967;-90
2022/09/01 07:47:03;;;;;;;;;;;;;;;16.03;92.95;102365.19;5009495;28;20518;-89
2022/09/01 07:49:29;;;;;;;;;;;;;;;16.13;92.86;102369.16;5009159;28;19934;-88
2022/09/01 07:51:57;;;;;;;;;;;;;;;16.25;92.38;102364.22;4980694;28;19934;-87
2022/09/01 07:54:24;;;;;;;;;;;;;;;16.41;91.88;102361.69;4995359;28;20411;-87
2022/09/01 07:56:49;;;;;;;;;;;;;;;16.40;90.54;102365.31;5011194;28;19936;-88
2022/09/01 07:59:14;;;;;;;;;;;;;;;16.44;91.38;102358.88;5010908;28;20308;-87
2022/09/01 08:01:41;;;;;;;;;;;;;;;16.54;91.19;102364.66;4979504;28;19953;-87
2022/09/01 08:04:09;;;;;;;;;;;;;;;16.66;91.59;102358.75;4980226;28;19934;-87
2022/09/01 08:06:35;;;;;;;;;;;;;;;16.84;90.84;102364.16;4981602;28;19940;-88
2022/09/01 08:09:00;;;;;;;;;;;;;;;17.01;89.73;102357.13;5008093;28;19930;-89
2022/09/01 08:11:27;;;;;;;;;;;;;;;17.22;88.73;102364.13;4979867;28;20480;-88
2022/09/01 08:13:53;;;;;;;;;;;;;;;17.39;87.74;102349.03;4993068;28;20289;-89
2022/09/01 08:16:20;;;;;;;;;;;;;;;17.55;87.97;102361.63;4976388;28;19929;-87
2022/09/01 08:18:46;;;;;;;;;;;;;;;17.70;88.00;102363.50;5006157;28;19930;-86
2022/09/01 08:21:12;;;;;;;;;;;;;;;17.84;86.77;102364.59;5012142;28;20312;-87
2022/09/01 08:23:38;;;;;;;;;;;;;;;17.99;85.92;102361.13;4995392;28;19972;-89
2022/09/01 08:26:04;;;;;;;;;;;;;;;18.12;85.74;102371.22;4995987;28;19983;-85
2022/09/01 08:28:29;;;;;;;;;;;;;;;18.26;85.48;102374.00;4980107;28;19937;-87
2022/09/01 08:30:55;;;;;;;;;;;;;;;18.44;84.51;102371.28;5011798;28;19929;-88
2022/09/01 08:33:20;;;;;;;;;;;;;;;18.57;83.27;102376.81;5008399;28;19934;-86
2022/09/01 08:35:46;;;;;;;;;;;;;;;18.70;82.07;102374.34;4977984;28;19992;-86
2022/09/01 08:38:12;;;;;;;;;;;;;;;18.89;81.05;102378.69;5006039;28;19937;-86
2022/09/01 08:40:37;;;;;;;;;;;;;;;19.03;82.49;102376.09;4968749;28;20060;-87
2022/09/01 08:43:23;;;;;;;;;;;;;;;19.07;81.63;102379.47;4993813;28;20029;-87
2022/09/01 08:45:49;;;;;;;;;;;;;;;19.12;81.38;102370.19;4979670;28;19926;-86
2022/09/01 08:48:19;;;;;;;;;;;;;;;19.19;80.83;102372.53;5008559;28;20192;-85
2022/09/01 08:50:45;;;;;;;;;;;;;;;19.32;81.21;102367.28;4979936;28;19957;-86
2022/09/01 08:53:22;;;;;;;;;;;;;;;19.46;80.79;102371.88;5009020;28;19936;-87
2022/09/01 08:55:51;;;;;;;;;;;;;;;19.55;80.19;102368.63;5011194;28;19934;-87
2022/09/01 08:58:16;;;;;;;;;;;;;;;19.64;79.81;102365.41;5008215;28;20608;-87
2022/09/01 09:00:45;;;;;;;;;;;;;;;19.72;79.25;102367.59;5012490;28;19980;-89
2022/09/01 09:03:17;;;;;;;;;;;;;;;19.86;80.25;102371.28;4991937;28;20234;-90
2022/09/01 09:05:55;;;;;;;;;;;;;;;20.01;78.55;102374.88;5007044;28;19929;-87
2022/09/01 09:08:39;;;;;;;;;;;;;;;20.13;79.83;102365.19;5006212;28;20219;-87
2022/09/01 09:11:05;;;;;;;;;;;;;;;20.30;78.06;102359.63;4993403;28;20446;-89
2022/09/01 09:13:31;;;;;;;;;;;;;;;20.47;77.60;102361.25;5012618;28;19941;-88
2022/09/01 09:16:06;;;;;;;;;;;;;;;20.52;77.17;102362.78;4980906;28;19937;-88
2022/09/01 09:18:53;;;;;;;;;;;;;;;20.57;76.52;102360.66;5007273;28;20417;-88
2022/09/01 09:21:21;;;;;;;;;;;;;;;20.62;74.96;102367.47;4979323;28;20094;-88
2022/09/01 09:23:47;;;;;;;;;;;;;;;20.65;75.53;102358.34;4993961;28;19925;-87
2022/09/01 09:26:13;;;;;;;;;;;;;;;20.67;74.41;102351.03;5012174;28;19977;-86
2022/09/01 09:28:39;;;;;;;;;;;;;;;20.73;74.56;102355.13;5011190;28;20083;-90
2022/09/01 09:31:23;;;;;;;;;;;;;;;20.75;73.31;102343.31;4991726;28;19972;-89
2022/09/01 09:33:48;;;;;;;;;;;;;;;20.85;73.69;102348.13;5010044;28;19930;-88
2022/09/01 09:36:15;;;;;;;;;;;;;;;20.93;71.40;102345.81;4992675;28;19936;-87
2022/09/01 09:38:41;;;;;;;;;;;;;;;20.94;73.40;102344.84;4980012;28;19929;-86
2022/09/01 09:41:07;;;;;;;;;;;;;;;20.98;73.37;102342.81;4995116;28;19926;-87
2022/09/01 09:43:40;;;;;;;;;;;;;;;21.01;72.79;102343.47;4981088;28;20392;-86
2022/09/01 09:46:24;;;;;;;;;;;;;;;21.05;74.54;102352.19;4975704;28;19929;-88
2022/09/01 09:49:25;;;;;;;;;;;;;;;21.13;71.71;102346.31;5008447;28;19926;-87
2022/09/01 09:51:53;;;;;;;;;;;;;;;21.17;70.09;102345.13;4963649;28;20003;-91
2022/09/01 09:54:23;;;;;;;;;;;;;;;21.09;69.42;102339.41;5016185;28;19984;-88
2022/09/01 09:57:02;;;;;;;;;;;;;;;21.02;69.95;102331.72;4989891;28;20008;-88
2022/09/01 09:59:29;;;;;;;;;;;;;;;20.96;66.40;102329.44;4985974;28;20479;-87
2022/09/01 10:01:56;;;;;;;;;;;;;;;20.89;67.91;102329.00;4979609;28;19972;-87
2022/09/01 10:04:32;;;;;;;;;;;;;;;20.92;66.61;102327.91;4994386;28;19976;-87
2022/09/01 10:06:58;;;;;;;;;;;;;;;20.89;65.97;102317.34;5013336;28;19921;-89
2022/09/01 10:09:24;;;;;;;;;;;;;;;20.95;66.41;102316.94;5000152;28;21823;-88
2022/09/01 10:11:50;;;;;;;;;;;;;;;21.01;66.14;102321.94;4983181;28;20071;-88
2022/09/01 10:14:18;;;;;;;;;;;;;;;21.02;65.90;102317.38;4994839;28;19937;-89
2022/09/01 10:16:43;;;;;;;;;;;;;;;20.98;65.36;102313.19;5011213;28;21240;-79
2022/09/01 10:19:12;;;;;;;;;;;;;;;20.94;64.55;102307.16;4980597;28;20580;-78
2022/09/01 10:21:39;;;;;;;;;;;;;;;20.92;63.32;102301.00;5013858;28;19948;-78
2022/09/01 10:24:13;;;;;;;;;;;;;;;20.99;65.13;102309.53;4993931;28;19996;-79
2022/09/01 10:26:39;;;;;;;;;;;;;;;20.98;63.74;102303.28;5013020;28;20007;-79
2022/09/01 10:29:24;;;;;;;;;;;;;;;20.89;63.14;102299.41;5012952;28;20020;-79
2022/09/01 10:31:50;;;;;;;;;;;;;;;20.85;62.94;102300.56;4981567;28;19934;-79
2022/09/01 10:34:16;;;;;;;;;;;;;;;20.90;62.28;102302.94;4991478;28;20388;-77
2022/09/01 10:36:43;;;;;;;;;;;;;;;20.92;62.03;102303.69;5011864;28;19926;-78
2022/09/01 10:39:12;;;;;;;;;;;;;;;20.88;61.33;102294.94;4992099;28;19925;-78
2022/09/01 10:41:49;;;;;;;;;;;;;;;20.87;60.39;102301.31;4995936;28;19926;-78
2022/09/01 10:44:34;;;;;;;;;;;;;;;20.96;61.13;102291.75;4980640;28;19956;-77
2022/09/01 10:47:01;;;;;;;;;;;;;;;20.94;60.38;102293.69;5012026;28;20016;-77
2022/09/01 10:49:26;;;;;;;;;;;;;;;20.89;60.55;102295.81;4978364;28;19932;-78
2022/09/01 10:51:53;;;;;;;;;;;;;;;20.80;58.95;102285.66;4979918;28;21309;-78
2022/09/01 10:54:37;;;;;;;;;;;;;;;20.76;59.45;102285.84;4977303;28;19934;-79
2022/09/01 10:57:03;;;;;;;;;;;;;;;20.78;58.46;102283.06;4980619;28;19929;-82
2022/09/01 10:59:28;;;;;;;;;;;;;;;20.91;59.76;102283.13;4994611;28;19932;-83
2022/09/01 11:01:53;;;;;;;;;;;;;;;21.02;57.50;102287.78;4980493;28;20028;-83
2022/09/01 11:04:28;;;;;;;;;;;;;;;21.03;57.70;102281.47;4977897;28;19926;-83
2022/09/01 11:06:57;;;;;;;;;;;;;;;21.03;58.05;102281.47;4980210;28;19925;-83
2022/09/01 11:09:29;;;;;;;;;;;;;;;21.11;57.91;102276.41;4980233;28;19925;-85
2022/09/01 11:12:14;;;;;;;;;;;;;;;21.26;56.56;102271.81;4980899;28;19926;-87
2022/09/01 11:14:46;;;;;;;;;;;;;;;21.42;56.31;102284.22;4982367;28;19968;-86
2022/09/01 11:17:16;;;;;;;;;;;;;;;21.49;55.04;102280.13;4973524;28;20213;-87
2022/09/01 11:19:44;;;;;;;;;;;;;;;21.54;54.94;102277.97;5012317;28;20020;-86
2022/09/01 11:22:14;;;;;;;;;;;;;;;21.56;57.30;102269.75;5013370;28;20019;-88
2022/09/01 11:24:43;;;;;;;;;;;;;;;21.61;55.39;102280.25;5014253;28;19992;-87
2022/09/01 11:27:09;;;;;;;;;;;;;;;21.55;55.97;102277.00;4983010;28;19930;-89
2022/09/01 11:29:50;;;;;;;;;;;;;;;21.49;57.91;102271.16;4995449;28;19932;-89
2022/09/01 11:32:15;;;;;;;;;;;;;;;21.49;56.54;102265.78;4981172;28;19925;-87
2022/09/01 11:34:41;;;;;;;;;;;;;;;21.48;56.29;102266.75;4996827;28;19926;-88
2022/09/01 11:37:11;;;;;;;;;;;;;;;21.51;54.14;102259.31;4997431;28;19925;-89
2022/09/01 11:39:41;;;;;;;;;;;;;;;21.54;56.45;102264.50;4981859;28;20397;-88
2022/09/01 11:42:09;;;;;;;;;;;;;;;21.58;55.35;102259.75;4978835;28;20361;-87
2022/09/01 11:44:40;;;;;;;;;;;;;;;21.57;55.75;102261.56;5013315;28;19948;-87
2022/09/01 11:47:06;;;;;;;;;;;;;;;21.64;55.74;102263.84;4978603;28;20075;-88
2022/09/01 11:49:33;;;;;;;;;;;;;;;21.76;56.67;102264.84;5004139;28;19933;-86
2022/09/01 11:51:59;;;;;;;;;;;;;;;21.84;54.88;102255.25;5012085;28;20459;-87
2022/09/01 11:54:25;;;;;;;;;;;;;;;21.88;54.24;102255.00;5011364;28;19933;-88
2022/09/01 11:56:50;;;;;;;;;;;;;;;21.95;55.55;102256.31;5009325;28;19926;-89
2022/09/01 11:59:33;;;;;;;;;;;;;;;21.88;54.01;102263.09;5012164;28;19960;-88
2022/09/01 12:02:00;;;;;;;;;;;;;;;21.76;52.87;102252.22;4994822;28;19937;-88
2022/09/01 12:04:29;;;;;;;;;;;;;;;21.62;53.54;102257.72;4994647;28;19925;-88
2022/09/01 12:06:56;;;;;;;;;;;;;;;21.49;55.53;102246.91;4980978;28;20040;-86
2022/09/01 12:09:30;;;;;;;;;;;;;;;21.40;56.09;102234.94;5012355;28;19926;-89
2022/09/01 12:11:55;;;;;;;;;;;;;;;21.37;55.11;102246.81;5013537;28;20015;-89
2022/09/01 12:14:21;;;;;;;;;;;;;;;21.33;55.06;102245.31;4993007;28;19940;-88
2022/09/01 12:16:55;;;;;;;;;;;;;;;21.24;55.19;102244.09;4993112;28;20300;-87
2022/09/01 12:19:21;;;;;;;;;;;;;;;21.18;55.19;102236.44;5011055;28;19930;-87
2022/09/01 12:21:55;;;;;;;;;;;;;;;21.20;56.65;102242.63;4993905;28;19937;-87
2022/09/01 12:24:22;;;;;;;;;;;;;;;21.24;53.81;102246.81;4992537;28;19976;-87
2022/09/01 12:26:53;;;;;;;;;;;;;;;21.32;54.58;102245.41;4980924;28;19932;-87
2022/09/01 12:29:18;;;;;;;;;;;;;;;21.37;55.71;102241.44;5009469;28;20589;-87
2022/09/01 12:31:44;;;;;;;;;;;;;;;21.37;54.75;102246.81;5011537;28;20428;-89
2022/09/01 12:34:29;;;;;;;;;;;;;;;21.42;54.59;102243.81;5007397;28;19956;-88
2022/09/01 12:37:04;;;;;;;;;;;;;;;21.47;55.35;102235.41;5006317;28;19933;-88
2022/09/01 12:39:33;;;;;;;;;;;;;;;21.52;54.08;102228.72;4982946;28;19929;-89
2022/09/01 12:42:02;;;;;;;;;;;;;;;21.52;53.68;102226.00;4977241;28;19934;-86